createdAt,value
2019-02-27T00:00:48.689Z,10.40
2019-02-27T00:01:49.837Z,10.40
2019-02-27T00:02:48.502Z,10.40
2019-02-27T00:03:48.423Z,10.10
2019-02-27T00:04:48.329Z,10.60
2019-02-27T00:05:48.243Z,10.10
2019-02-27T00:06:48.497Z,10.10
2019-02-27T00:07:48.072Z,9.80
2019-02-27T00:08:47.991Z,10.20
2019-02-27T00:09:47.901Z,10.40
2019-02-27T00:10:47.819Z,10.30
2019-02-27T00:11:47.744Z,10.10
2019-02-27T00:12:51.705Z,10.20
2019-02-27T00:13:47.560Z,10.50
2019-02-27T00:14:47.480Z,9.80
2019-02-27T00:15:47.383Z,9.70
2019-02-27T00:16:47.321Z,10.10
2019-02-27T00:17:51.069Z,9.80
2019-02-27T00:18:47.129Z,10.00
2019-02-27T00:19:47.048Z,9.40
2019-02-27T00:20:46.963Z,9.80
2019-02-27T00:21:46.889Z,9.70
2019-02-27T00:22:47.902Z,9.50
2019-02-27T00:23:46.696Z,9.50
2019-02-27T00:24:46.608Z,9.50
2019-02-27T00:25:46.528Z,9.60
2019-02-27T00:26:46.453Z,10.00
2019-02-27T00:27:49.246Z,9.70
2019-02-27T00:28:46.276Z,9.80
2019-02-27T00:29:46.177Z,10.20
2019-02-27T00:30:46.091Z,9.30
2019-02-27T00:31:46.196Z,9.70
2019-02-27T00:32:45.923Z,9.70
2019-02-27T00:33:45.834Z,10.00
2019-02-27T00:34:45.760Z,8.90
2019-02-27T00:35:45.662Z,10.30
2019-02-27T00:36:45.717Z,9.60
2019-02-27T00:37:45.501Z,10.00
2019-02-27T00:38:45.402Z,9.50
2019-02-27T00:39:45.323Z,10.20
2019-02-27T00:40:45.229Z,9.30
2019-02-27T00:41:46.039Z,9.10
2019-02-27T00:42:45.058Z,9.60
2019-02-27T00:43:44.974Z,10.20
2019-02-27T00:44:44.891Z,9.70
2019-02-27T00:45:44.801Z,10.00
2019-02-27T00:46:46.521Z,9.20
2019-02-27T00:47:44.639Z,9.60
2019-02-27T00:48:44.548Z,9.80
2019-02-27T00:49:44.460Z,9.70
2019-02-27T00:50:44.370Z,9.40
2019-02-27T00:51:44.867Z,9.60
2019-02-27T00:52:44.198Z,9.80
2019-02-27T00:53:44.122Z,9.80
2019-02-27T00:54:44.023Z,9.50
2019-02-27T00:55:43.937Z,9.40
2019-02-27T00:56:45.055Z,10.10
2019-02-27T00:57:43.765Z,9.50
2019-02-27T00:58:43.677Z,8.80
2019-02-27T00:59:43.599Z,9.50
2019-02-27T01:00:43.506Z,9.50
2019-02-27T01:01:47.207Z,9.10
2019-02-27T01:02:43.338Z,10.00
2019-02-27T01:03:43.249Z,9.70
2019-02-27T01:04:43.171Z,9.60
2019-02-27T01:05:43.072Z,9.30
2019-02-27T01:06:45.050Z,9.40
2019-02-27T01:07:42.904Z,9.20
2019-02-27T01:08:42.814Z,9.50
2019-02-27T01:09:42.739Z,9.70
2019-02-27T01:10:42.901Z,10.10
2019-02-27T01:11:42.559Z,10.40
2019-02-27T01:12:42.494Z,9.20
2019-02-27T01:13:42.385Z,9.20
2019-02-27T01:14:42.297Z,9.80
2019-02-27T01:15:44.699Z,9.70
2019-02-27T01:16:42.123Z,9.50
2019-02-27T01:17:42.056Z,9.30
2019-02-27T01:18:41.966Z,10.00
2019-02-27T01:19:42.892Z,9.00
2019-02-27T01:20:45.722Z,9.90
2019-02-27T01:21:41.697Z,9.50
2019-02-27T01:22:41.615Z,9.40
2019-02-27T01:23:43.823Z,9.90
2019-02-27T01:24:41.441Z,9.80
2019-02-27T01:25:41.348Z,10.30
2019-02-27T01:26:41.268Z,13.30
2019-02-27T01:27:41.189Z,15.90
2019-02-27T01:28:44.641Z,22.40
2019-02-27T01:29:41.017Z,17.30
2019-02-27T01:30:40.911Z,15.50
2019-02-27T01:31:40.825Z,13.80
2019-02-27T01:32:40.775Z,12.60
2019-02-27T01:33:40.651Z,14.70
2019-02-27T01:34:44.187Z,14.20
2019-02-27T01:35:40.491Z,14.50
2019-02-27T01:36:40.397Z,14.30
2019-02-27T01:37:40.320Z,14.90
2019-02-27T01:38:40.226Z,15.40
2019-02-27T01:39:41.816Z,15.70
2019-02-27T01:40:40.051Z,15.60
2019-02-27T01:41:39.964Z,15.70
2019-02-27T01:42:39.889Z,16.20
2019-02-27T01:43:40.625Z,16.40
2019-02-27T01:44:39.707Z,16.50
2019-02-27T01:45:39.613Z,15.40
2019-02-27T01:46:39.530Z,15.30
2019-02-27T01:47:39.465Z,16.00
2019-02-27T01:48:42.592Z,15.60
2019-02-27T01:49:39.266Z,15.80
2019-02-27T01:50:39.188Z,15.20
2019-02-27T01:51:39.094Z,15.10
2019-02-27T01:52:39.025Z,14.30
2019-02-27T01:53:40.486Z,14.20
2019-02-27T01:54:38.835Z,14.80
2019-02-27T01:55:38.748Z,14.10
2019-02-27T01:56:38.664Z,15.00
2019-02-27T01:57:38.591Z,15.00
2019-02-27T01:58:38.491Z,14.90
2019-02-27T01:59:38.416Z,15.60
2019-02-27T02:00:38.315Z,14.70
2019-02-27T02:01:38.240Z,15.50
2019-02-27T02:02:40.468Z,16.00
2019-02-27T02:03:38.062Z,15.60
2019-02-27T02:04:37.982Z,14.80
2019-02-27T02:05:37.886Z,15.20
2019-02-27T02:06:37.794Z,14.90
2019-02-27T02:07:39.922Z,15.10
2019-02-27T02:08:37.628Z,14.80
2019-02-27T02:09:37.536Z,14.20
2019-02-27T02:10:37.467Z,14.30
2019-02-27T02:11:37.369Z,14.40
2019-02-27T02:12:39.095Z,14.20
2019-02-27T06:15:33.002Z,19.50
2019-02-27T06:16:04.014Z,19.30
2019-02-27T06:17:00.879Z,18.10
2019-02-27T06:18:00.785Z,18.10
2019-02-27T06:19:00.700Z,18.40
2019-02-27T06:20:00.623Z,18.60
2019-02-27T06:21:00.543Z,17.30
2019-02-27T06:22:00.435Z,14.30
2019-02-27T06:23:04.141Z,14.70
2019-02-27T06:24:00.257Z,14.30
2019-02-27T06:25:00.251Z,14.90
2019-02-27T06:26:00.246Z,15.50
2019-02-27T06:26:59.998Z,14.90
2019-02-27T06:27:59.964Z,15.20
2019-02-27T06:28:59.817Z,15.00
2019-02-27T06:29:59.838Z,14.80
2019-02-27T06:31:02.577Z,14.00
2019-02-27T06:31:59.553Z,13.70
2019-02-27T06:32:59.486Z,12.90
2019-02-27T06:33:59.379Z,12.30
2019-02-27T06:34:59.937Z,13.50
2019-02-27T10:05:03.547Z,8.30
